Merle K (Mudhole) Smith Airport
PACV : now visible

Airfield :











YOU CAN JOIN US ON...

 
LOGIN :

Register | Disclaimer

   EN    FR    IT 

 









Legend :    VFR   Marginal VFR   IFR   Intensive IFR   Very Intensive IFR
Visi :
Ceiling :
>= 8 km
>= 3000ft
5 to 8 km
1000 to 3000 ft
1500m to 5 km
500 to 1000 ft
800 to 1500m
200 to 500 ft
< 800m
< 200 ft
Symbols :   Thunderstorms  Fog  Heavy snow  Heavy precipitations  Wind > 20 kt






- Airport Elevation : 54 ft
- IATA code : CDV


PACV - Merle K (Mudhole) Smith

CURRENT METAR :
  • 170653Z 00000KT 10SM -RA OVC050 08/07 A2938 RMK AO2 SLP950 P0002 T00780072

EXPIRED METARs :
  • 170553Z 00000KT 10SM -RA OVC050 08/07 A2939 RMK AO2 SLP952 P0001 60003 T00780067 10117 20078 58011
  • 170453Z 00000KT 10SM -RA OVC048 08/07 A2940 RMK AO2 SLP955 P0002 T00830067

TAF PACV
Valid from the 17 at 06:00 until the 18 at 06:00 UTC


170540Z 1706/1806 07005KT P6SM -RA BKN035 OVC050
FM171200 VRB04KT P6SM FEW040 BKN080
PAZA FIR / North America



MET'MAP, your aeronautical weather chart ! - Copyright ORBIFLY December 2007 - Disclaimer

ORBIFLY MET'MAP TEAM :

Programming & Development : Alexandra Zaïnal
Concept & original design : Baudouin d'Aumeries
Assistance for programming : Marc-Olivier Méhu
Technical & hardware support : Manuel Goepfert

Contact : metmap@orbifly.com




SOURCES & CREDITS :

   NOAA       Earth
Advisory